createdAt,value
2022-12-11T00:01:33.984Z,19.13
2022-12-11T00:04:00.941Z,23.40
2022-12-11T00:06:27.926Z,18.83
2022-12-11T00:08:56.045Z,22.20
2022-12-11T00:11:23.253Z,23.90
2022-12-11T00:13:50.241Z,25.73
2022-12-11T00:16:17.228Z,25.70
2022-12-11T00:18:44.179Z,21.73
2022-12-11T00:21:13.109Z,25.15
2022-12-11T00:23:40.260Z,21.45
2022-12-11T00:26:13.521Z,23.00
2022-12-11T00:28:40.634Z,23.17
2022-12-11T00:31:08.585Z,21.38
2022-12-11T00:33:35.531Z,24.35
2022-12-11T00:36:02.490Z,23.55
2022-12-11T00:38:29.403Z,22.73
2022-12-11T00:40:59.849Z,26.27
2022-12-11T00:43:26.807Z,21.25
2022-12-11T00:45:53.783Z,27.30
2022-12-11T00:48:20.701Z,23.10
2022-12-11T00:50:47.802Z,22.50
2022-12-11T00:53:14.888Z,23.20
2022-12-11T00:55:42.346Z,21.10
2022-12-11T00:58:09.578Z,21.27
2022-12-11T01:00:36.608Z,22.08
2022-12-11T01:03:03.717Z,25.02
2022-12-11T01:05:30.869Z,24.17
2022-12-11T01:07:57.900Z,23.63
2022-12-11T01:10:25.006Z,24.13
2022-12-11T01:12:58.436Z,20.63
2022-12-11T01:15:27.764Z,22.75
2022-12-11T01:17:54.729Z,21.15
2022-12-11T01:20:22.052Z,22.23
2022-12-11T01:22:48.974Z,26.92
2022-12-11T01:25:16.021Z,20.88
2022-12-11T01:27:42.915Z,23.35
2022-12-11T01:30:10.351Z,25.77
2022-12-11T01:32:37.273Z,22.98
2022-12-11T01:35:05.323Z,20.42
2022-12-11T01:37:32.227Z,20.08
2022-12-11T01:40:00.892Z,21.75
2022-12-11T01:42:29.535Z,17.85
2022-12-11T01:45:15.328Z,16.30
2022-12-11T01:47:42.285Z,16.75
2022-12-11T01:50:09.915Z,20.05
2022-12-11T01:52:37.037Z,17.88
2022-12-11T01:55:04.301Z,17.15
2022-12-11T01:57:31.234Z,14.68
2022-12-11T01:59:58.208Z,16.15
2022-12-11T02:02:28.028Z,14.48
2022-12-11T02:04:54.980Z,15.65
2022-12-11T02:07:21.940Z,12.93
2022-12-11T02:09:48.832Z,15.02
2022-12-11T02:12:19.038Z,17.67
2022-12-11T02:14:52.325Z,16.50
2022-12-11T02:17:19.251Z,13.98
2022-12-11T02:19:49.323Z,13.48
2022-12-11T02:22:23.100Z,15.10
2022-12-11T02:27:23.672Z,15.10
2022-12-11T02:30:15.110Z,16.80
2022-12-11T02:32:50.485Z,10.80
2022-12-11T02:35:39.645Z,12.93
2022-12-11T02:38:28.893Z,13.57
2022-12-11T02:40:56.121Z,13.85
2022-12-11T02:43:23.470Z,13.38
2022-12-11T02:45:50.546Z,13.75
2022-12-11T02:48:17.564Z,13.18
2022-12-11T02:50:46.427Z,13.90
2022-12-11T02:53:13.919Z,14.80
2022-12-11T02:55:40.924Z,14.55
2022-12-11T02:58:13.409Z,15.55
2022-12-11T03:00:40.540Z,15.05
2022-12-11T03:03:07.496Z,13.38
2022-12-11T03:05:34.395Z,13.98
2022-12-11T03:08:01.889Z,16.77
2022-12-11T03:10:28.946Z,13.75
2022-12-11T03:12:56.213Z,16.35
2022-12-11T03:15:30.397Z,15.75
2022-12-11T03:18:04.213Z,13.10
2022-12-11T03:20:34.148Z,16.90
2022-12-11T03:23:47.737Z,15.00
2022-12-11T03:26:15.551Z,12.88
2022-12-11T03:28:46.169Z,11.88
2022-12-11T03:31:15.625Z,11.57
2022-12-11T03:33:44.698Z,13.50
2022-12-11T03:36:20.041Z,12.43
2022-12-11T03:38:49.380Z,11.82
2022-12-11T03:41:17.423Z,11.85
2022-12-11T03:43:44.467Z,12.18
2022-12-11T03:46:11.691Z,11.93
2022-12-11T03:48:40.557Z,12.77
2022-12-11T03:51:07.872Z,11.35
2022-12-11T03:53:35.670Z,12.77
2022-12-11T03:56:04.301Z,11.43
2022-12-11T03:58:31.224Z,13.43
2022-12-11T04:00:58.336Z,10.52
2022-12-11T04:03:25.261Z,13.02
2022-12-11T04:05:53.727Z,13.43
2022-12-11T04:08:21.003Z,12.23
2022-12-11T04:10:48.131Z,11.85
2022-12-11T04:13:15.174Z,9.98
2022-12-11T04:15:42.256Z,10.77
2022-12-11T04:18:29.141Z,12.85
2022-12-11T04:21:14.928Z,12.15
2022-12-11T04:24:00.564Z,12.80
2022-12-11T04:26:27.550Z,11.07
2022-12-11T04:28:54.605Z,11.45
2022-12-11T04:31:23.510Z,12.40
2022-12-11T04:33:50.603Z,13.13
2022-12-11T04:36:17.747Z,12.43
2022-12-11T04:38:44.672Z,13.02
2022-12-11T04:41:14.534Z,12.98
2022-12-11T04:43:41.806Z,10.00
2022-12-11T04:46:10.724Z,10.20
2022-12-11T04:48:38.608Z,11.45
2022-12-11T04:51:05.881Z,11.63
2022-12-11T04:53:32.763Z,10.70
2022-12-11T04:55:59.755Z,8.63
2022-12-11T04:58:27.137Z,10.55
2022-12-11T05:00:54.126Z,8.85
2022-12-11T05:03:21.077Z,10.52
2022-12-11T05:05:49.485Z,10.55
2022-12-11T05:08:17.705Z,11.27
2022-12-11T05:10:49.984Z,11.63
2022-12-11T05:13:17.208Z,11.77
2022-12-11T05:15:44.137Z,9.15
2022-12-11T05:18:11.123Z,10.88
2022-12-11T05:20:38.313Z,11.80
2022-12-11T05:23:05.263Z,10.65
2022-12-11T05:25:32.258Z,11.65
2022-12-11T05:27:59.382Z,11.63
2022-12-11T05:30:26.562Z,8.70
2022-12-11T05:32:53.491Z,9.25
2022-12-11T05:35:20.380Z,11.80
2022-12-11T05:37:47.300Z,9.63
2022-12-11T05:40:14.904Z,10.27
2022-12-11T05:42:41.848Z,9.10
2022-12-11T05:45:09.369Z,11.25
2022-12-11T05:47:36.559Z,9.32
2022-12-11T05:50:03.690Z,8.95
2022-12-11T05:52:31.889Z,8.80
2022-12-11T05:54:58.860Z,9.50
2022-12-11T05:57:25.769Z,9.20
2022-12-11T05:59:52.717Z,9.13
2022-12-11T06:02:19.648Z,10.13
2022-12-11T06:04:46.690Z,10.98
2022-12-11T06:07:13.679Z,11.95
2022-12-11T06:09:40.612Z,10.63
2022-12-11T06:12:07.720Z,12.40
2022-12-11T06:14:34.642Z,8.48
2022-12-11T06:17:01.703Z,9.77
2022-12-11T06:19:33.364Z,10.57
2022-12-11T06:22:03.437Z,9.05
2022-12-11T06:24:30.576Z,9.75
2022-12-11T06:26:57.567Z,9.43
2022-12-11T06:29:24.565Z,9.90
2022-12-11T06:31:51.607Z,10.18
2022-12-11T06:34:18.667Z,10.13
2022-12-11T06:36:45.646Z,10.60
2022-12-11T06:39:12.544Z,10.05
2022-12-11T06:41:39.438Z,11.35
2022-12-11T06:44:06.432Z,10.70
2022-12-11T06:46:33.357Z,14.25
2022-12-11T06:49:00.239Z,14.93
2022-12-11T06:51:27.148Z,14.98
2022-12-11T06:53:55.340Z,17.05
2022-12-11T06:56:22.694Z,21.98
2022-12-11T06:58:49.887Z,21.63
2022-12-11T07:01:21.532Z,26.55
2022-12-11T07:03:48.729Z,25.02
2022-12-11T07:06:15.801Z,27.33
2022-12-11T07:08:43.666Z,25.23
2022-12-11T07:11:12.802Z,32.72
2022-12-11T07:13:42.053Z,27.10
2022-12-11T07:16:11.162Z,30.63
2022-12-11T07:18:43.390Z,29.88
2022-12-11T07:21:12.271Z,32.30
2022-12-11T07:23:39.443Z,37.97
2022-12-11T07:26:07.318Z,52.22
2022-12-11T07:28:34.611Z,35.72
2022-12-11T07:31:15.356Z,38.45
2022-12-11T07:33:42.531Z,27.55
2022-12-11T07:36:10.459Z,25.13
2022-12-11T07:38:37.463Z,25.83
2022-12-11T07:41:05.444Z,29.33
2022-12-11T07:43:35.631Z,46.40
2022-12-11T07:46:06.171Z,28.98
2022-12-11T07:48:35.486Z,26.10
2022-12-11T07:51:18.906Z,24.85
2022-12-11T07:53:47.162Z,30.65
2022-12-11T07:56:14.716Z,21.10
2022-12-11T07:58:41.797Z,27.50
2022-12-11T08:01:13.607Z,24.73
2022-12-11T08:03:40.633Z,22.70
2022-12-11T08:06:08.047Z,21.88
2022-12-11T08:08:35.082Z,29.00
2022-12-11T08:11:05.628Z,31.45
2022-12-11T08:13:32.847Z,32.00
2022-12-11T08:15:59.816Z,30.17
2022-12-11T08:18:26.687Z,25.75
2022-12-11T08:20:53.682Z,33.53
2022-12-11T08:23:20.630Z,25.08
2022-12-11T08:25:47.574Z,32.40
2022-12-11T08:28:14.564Z,25.23
2022-12-11T08:30:41.628Z,21.05
2022-12-11T08:33:08.749Z,18.83
2022-12-11T08:35:39.588Z,22.50
2022-12-11T08:38:06.671Z,19.92
2022-12-11T08:40:33.629Z,17.95
2022-12-11T08:43:00.548Z,16.92
2022-12-11T08:45:27.506Z,15.93
2022-12-11T08:47:54.418Z,16.35
2022-12-11T08:50:21.378Z,14.82
2022-12-11T08:52:48.351Z,18.55
2022-12-11T08:55:15.419Z,17.48
2022-12-11T08:57:42.311Z,20.30
2022-12-11T09:00:12.426Z,21.42
2022-12-11T09:02:39.699Z,17.88
2022-12-11T09:05:08.356Z,21.83
2022-12-11T09:07:36.558Z,20.23
2022-12-11T09:10:04.765Z,15.13
2022-12-11T09:12:32.743Z,19.48
2022-12-11T09:15:00.197Z,20.20
2022-12-11T09:17:27.347Z,16.58
2022-12-11T09:19:54.288Z,18.13
2022-12-11T09:22:21.258Z,20.88
2022-12-11T09:24:48.298Z,19.42
2022-12-11T09:27:15.268Z,22.05
2022-12-11T09:29:42.363Z,18.27
2022-12-11T09:32:09.561Z,17.23
2022-12-11T09:34:36.592Z,17.38
2022-12-11T09:37:03.527Z,16.15
2022-12-11T09:39:30.627Z,17.23
2022-12-11T09:42:03.264Z,17.13
2022-12-11T09:44:52.623Z,18.38
2022-12-11T09:47:41.219Z,19.10
2022-12-11T09:50:11.386Z,20.98
2022-12-11T09:52:53.497Z,20.63
2022-12-11T09:55:24.248Z,20.20
2022-12-11T09:57:57.351Z,16.58
2022-12-11T10:00:38.929Z,18.67
2022-12-11T10:03:21.292Z,18.48
2022-12-11T10:06:06.673Z,20.20
2022-12-11T10:08:45.118Z,28.67
2022-12-11T10:11:24.038Z,25.20
2022-12-11T10:14:03.180Z,23.92
2022-12-11T10:16:39.628Z,22.13
2022-12-11T10:19:09.120Z,21.80
2022-12-11T10:21:40.608Z,19.92
2022-12-11T10:24:33.783Z,23.67
2022-12-11T10:27:09.410Z,93.68
2022-12-11T10:29:36.362Z,32.10
2022-12-11T10:32:03.581Z,27.35
2022-12-11T10:34:37.945Z,22.90
2022-12-11T10:37:04.862Z,28.52
2022-12-11T10:39:32.022Z,22.95
2022-12-11T10:41:58.887Z,24.02
2022-12-11T10:44:28.356Z,26.90
2022-12-11T10:47:14.001Z,24.13
2022-12-11T10:49:54.941Z,21.38
2022-12-11T10:52:32.588Z,22.92
2022-12-11T10:55:18.007Z,18.27
2022-12-11T10:57:44.949Z,19.85
2022-12-11T11:00:32.424Z,25.02
2022-12-11T11:02:59.757Z,27.15
2022-12-11T11:05:36.634Z,23.83
2022-12-11T11:08:15.088Z,21.23
2022-12-11T11:11:01.368Z,27.35
2022-12-11T11:13:30.616Z,25.30
2022-12-11T11:16:04.873Z,26.58
2022-12-11T11:18:32.184Z,28.15
2022-12-11T11:21:01.802Z,26.42
2022-12-11T11:23:29.253Z,29.50
2022-12-11T11:26:02.968Z,24.60
2022-12-11T11:31:03.533Z,25.38
2022-12-11T11:33:31.149Z,27.95
2022-12-11T11:36:01.019Z,34.78
2022-12-11T11:38:35.656Z,37.42
2022-12-11T11:41:17.699Z,26.90
2022-12-11T11:43:49.370Z,28.10
2022-12-11T11:46:40.892Z,33.60
2022-12-11T11:49:14.419Z,33.30
2022-12-11T11:51:54.585Z,29.55
2022-12-11T11:54:38.746Z,35.58
2022-12-11T11:57:13.815Z,31.08
2022-12-11T11:59:48.953Z,31.27
2022-12-11T12:02:17.181Z,27.58
2022-12-11T12:04:45.125Z,26.73
2022-12-11T12:07:38.285Z,25.67
2022-12-11T12:10:36.562Z,26.17
2022-12-11T12:13:48.136Z,32.35
2022-12-11T12:16:51.129Z,32.63
2022-12-11T12:19:38.279Z,28.25
2022-12-11T12:22:25.490Z,27.80
2022-12-11T12:25:38.933Z,27.88
2022-12-11T12:28:33.987Z,31.60
2022-12-11T12:31:06.678Z,30.52
2022-12-11T12:33:44.124Z,27.43
2022-12-11T12:36:26.901Z,31.15
2022-12-11T12:38:56.110Z,35.90
2022-12-11T12:41:41.992Z,37.50
2022-12-11T12:44:25.183Z,26.20
2022-12-11T12:47:01.905Z,32.60
2022-12-11T12:49:50.724Z,30.38
2022-12-11T12:52:32.296Z,27.55
2022-12-11T12:55:14.094Z,32.13
2022-12-11T12:58:01.123Z,28.95
2022-12-11T13:00:35.159Z,29.92
2022-12-11T13:03:14.572Z,28.27
2022-12-11T13:05:43.781Z,30.35
2022-12-11T13:08:18.468Z,29.10
2022-12-11T13:10:45.667Z,28.10
2022-12-11T13:13:35.128Z,26.77
2022-12-11T13:16:14.964Z,30.23
2022-12-11T13:18:45.589Z,29.65
2022-12-11T13:21:31.734Z,26.88
2022-12-11T13:24:19.943Z,34.67
2022-12-11T13:26:47.937Z,30.52
2022-12-11T13:29:35.495Z,25.08
2022-12-11T13:32:17.581Z,29.15
2022-12-11T13:34:47.318Z,25.83
2022-12-11T13:37:22.099Z,25.50
2022-12-11T13:39:49.076Z,25.90
2022-12-11T13:42:36.403Z,25.95
2022-12-11T13:45:06.414Z,26.60
2022-12-11T13:47:36.741Z,26.95
2022-12-11T13:50:19.538Z,30.98
2022-12-11T13:52:56.611Z,31.95
2022-12-11T13:55:25.938Z,32.33
2022-12-11T13:57:53.092Z,30.30
2022-12-11T14:00:25.740Z,27.10
2022-12-11T14:02:53.666Z,27.17
2022-12-11T14:05:21.183Z,27.88
2022-12-11T14:07:50.791Z,29.08
2022-12-11T14:10:25.471Z,25.60
2022-12-11T14:12:55.519Z,34.40
2022-12-11T14:15:22.597Z,32.78
2022-12-11T14:17:51.864Z,30.30
2022-12-11T14:20:24.237Z,28.80
2022-12-11T14:22:51.274Z,33.70
2022-12-11T14:25:27.529Z,27.80
2022-12-11T14:27:55.720Z,27.50
2022-12-11T14:30:28.072Z,30.27
2022-12-11T14:32:57.560Z,31.33
2022-12-11T14:35:38.868Z,34.65
2022-12-11T14:38:22.190Z,29.05
2022-12-11T14:40:51.602Z,29.33
2022-12-11T14:43:23.970Z,30.08
2022-12-11T14:45:51.062Z,30.42
2022-12-11T14:48:20.834Z,32.80
2022-12-11T14:50:50.275Z,31.58
2022-12-11T14:53:26.178Z,34.05
2022-12-11T14:55:53.236Z,37.80
2022-12-11T14:58:28.549Z,36.17
2022-12-11T15:01:06.722Z,37.08
2022-12-11T15:03:38.038Z,35.30
2022-12-11T15:06:31.357Z,35.30
2022-12-11T15:08:58.529Z,33.42
2022-12-11T15:11:30.054Z,39.90
2022-12-11T15:14:01.014Z,37.40
2022-12-11T15:16:28.628Z,41.95
2022-12-11T15:18:55.775Z,42.95
2022-12-11T15:21:30.192Z,37.13
2022-12-11T15:23:58.858Z,42.58
2022-12-11T15:26:35.783Z,42.42
2022-12-11T15:29:04.521Z,41.83
2022-12-11T15:31:33.474Z,32.00
2022-12-11T15:34:00.598Z,41.42
2022-12-11T15:36:32.216Z,37.40
2022-12-11T15:38:59.178Z,39.10
2022-12-11T15:41:26.324Z,35.05
2022-12-11T15:43:58.613Z,43.90
2022-12-11T15:46:26.467Z,38.67
2022-12-11T15:48:53.540Z,41.65
2022-12-11T15:51:20.559Z,35.28
2022-12-11T15:53:47.593Z,47.33
2022-12-11T15:56:17.540Z,43.53
2022-12-11T15:58:45.281Z,43.15
2022-12-11T16:01:12.487Z,44.35
2022-12-11T16:03:39.484Z,45.70
2022-12-11T16:06:06.667Z,45.70
2022-12-11T16:08:33.702Z,52.05
2022-12-11T16:11:00.667Z,46.47
2022-12-11T16:13:27.550Z,46.95
2022-12-11T16:15:54.602Z,46.78
2022-12-11T16:18:22.788Z,44.42
2022-12-11T16:20:50.373Z,39.88
2022-12-11T16:23:17.567Z,39.17
2022-12-11T16:25:45.144Z,41.00
2022-12-11T16:28:13.084Z,43.13
2022-12-11T16:30:40.157Z,39.42
2022-12-11T16:33:12.132Z,48.00
2022-12-11T16:35:39.998Z,40.67
2022-12-11T16:38:07.895Z,44.42
2022-12-11T16:40:35.026Z,48.45
2022-12-11T16:43:11.344Z,40.97
2022-12-11T16:45:38.650Z,52.67
2022-12-11T16:48:05.774Z,45.90
2022-12-11T16:50:33.136Z,43.30
2022-12-11T16:53:00.232Z,39.22
2022-12-11T16:55:27.341Z,41.90
2022-12-11T16:57:55.158Z,37.97
2022-12-11T17:00:22.797Z,41.20
2022-12-11T17:02:49.996Z,39.03
2022-12-11T17:05:17.261Z,39.13
2022-12-11T17:07:44.613Z,36.60
2022-12-11T17:10:12.187Z,41.35
2022-12-11T17:12:39.410Z,46.10
2022-12-11T17:15:07.064Z,44.97
2022-12-11T17:17:34.083Z,44.28
2022-12-11T17:20:01.485Z,43.13
2022-12-11T17:22:28.689Z,45.45
2022-12-11T17:24:55.853Z,41.97
2022-12-11T17:27:23.136Z,37.35
2022-12-11T17:29:53.654Z,36.00
2022-12-11T17:32:20.621Z,42.45
2022-12-11T17:34:50.522Z,38.58
2022-12-11T17:37:18.047Z,38.42
2022-12-11T17:39:45.246Z,42.50
2022-12-11T17:42:12.269Z,42.60
2022-12-11T17:44:39.388Z,43.17
2022-12-11T17:47:11.104Z,42.05
2022-12-11T17:49:39.942Z,41.83
2022-12-11T17:52:07.147Z,39.58
2022-12-11T17:54:35.002Z,43.58
2022-12-11T17:57:05.048Z,40.38
2022-12-11T17:59:33.129Z,42.55
2022-12-11T18:02:00.241Z,38.63
2022-12-11T18:04:27.523Z,41.03
2022-12-11T18:06:54.511Z,40.78
2022-12-11T18:09:22.320Z,46.97
2022-12-11T18:11:54.847Z,46.20
2022-12-11T18:14:22.385Z,41.13
2022-12-11T18:16:49.296Z,44.13
2022-12-11T18:19:16.884Z,39.42
2022-12-11T18:21:45.761Z,43.85
2022-12-11T18:24:12.971Z,42.42
2022-12-11T18:26:42.810Z,43.90
2022-12-11T18:29:09.915Z,42.22
2022-12-11T18:31:42.202Z,42.83
2022-12-11T18:34:10.339Z,42.88
2022-12-11T18:36:37.959Z,40.03
2022-12-11T18:39:04.900Z,40.47
2022-12-11T18:41:32.170Z,38.13
2022-12-11T18:44:09.336Z,42.08
2022-12-11T18:46:37.153Z,44.10
2022-12-11T18:49:04.180Z,44.80
2022-12-11T18:51:31.101Z,43.42
2022-12-11T18:53:58.019Z,46.30
2022-12-11T18:56:24.920Z,41.97
2022-12-11T18:58:52.066Z,48.83
2022-12-11T19:01:27.375Z,48.15
2022-12-11T19:04:02.727Z,41.00
2022-12-11T19:06:32.085Z,41.58
2022-12-11T19:08:59.695Z,43.50
2022-12-11T19:11:27.562Z,49.08
2022-12-11T19:13:56.669Z,50.83
2022-12-11T19:16:25.521Z,46.03
2022-12-11T19:18:52.641Z,45.72
2022-12-11T19:21:19.595Z,56.55
2022-12-11T19:23:46.839Z,45.83
2022-12-11T19:26:25.514Z,36.13
2022-12-11T19:28:53.391Z,36.35
2022-12-11T19:31:21.777Z,35.08
2022-12-11T19:33:48.944Z,35.05
2022-12-11T19:36:17.779Z,38.45
2022-12-11T19:38:45.498Z,33.80
2022-12-11T19:41:15.673Z,37.75
2022-12-11T19:43:42.857Z,30.63
2022-12-11T19:46:12.532Z,30.35
2022-12-11T19:48:41.774Z,31.70
2022-12-11T19:51:15.530Z,27.05
2022-12-11T19:53:45.144Z,26.88
2022-12-11T19:56:12.494Z,26.52
2022-12-11T19:58:41.084Z,25.40
2022-12-11T20:01:08.194Z,26.20
2022-12-11T20:03:38.695Z,24.58
2022-12-11T20:06:10.458Z,22.23
2022-12-11T20:08:46.034Z,24.42
2022-12-11T20:11:18.763Z,23.60
2022-12-11T20:13:50.343Z,25.73
2022-12-11T20:16:20.022Z,23.10
2022-12-11T20:18:55.978Z,31.85
2022-12-11T20:21:23.086Z,24.55
2022-12-11T20:23:50.381Z,22.73
2022-12-11T20:26:19.965Z,22.65
2022-12-11T20:28:53.838Z,24.58
2022-12-11T20:31:24.723Z,22.02
2022-12-11T20:33:53.679Z,20.02
2022-12-11T20:36:21.595Z,20.30
2022-12-11T20:38:48.856Z,20.90
2022-12-11T20:41:20.613Z,19.33
2022-12-11T20:43:49.099Z,23.13
2022-12-11T20:46:16.911Z,21.17
2022-12-11T20:48:44.937Z,20.85
2022-12-11T20:51:12.974Z,23.67
2022-12-11T20:53:41.609Z,18.42
2022-12-11T20:56:10.909Z,22.00
2022-12-11T20:58:38.549Z,21.23
2022-12-11T21:01:05.858Z,18.00
2022-12-11T21:03:37.545Z,21.70
2022-12-11T21:06:07.682Z,20.45
2022-12-11T21:08:34.617Z,21.02
2022-12-11T21:11:01.566Z,21.67
2022-12-11T21:13:28.561Z,19.67
2022-12-11T21:15:56.769Z,19.88
2022-12-11T21:18:24.048Z,22.48
2022-12-11T21:20:56.823Z,19.23
2022-12-11T21:23:25.071Z,19.20
2022-12-11T21:25:52.612Z,19.20
2022-12-11T21:28:19.762Z,18.95
2022-12-11T21:30:46.826Z,19.42
2022-12-11T21:33:16.274Z,22.05
2022-12-11T21:35:43.669Z,20.20
2022-12-11T21:38:10.585Z,17.98
2022-12-11T21:40:37.733Z,19.20
2022-12-11T21:43:04.797Z,19.15
2022-12-11T21:48:23.314Z,19.45
2022-12-11T21:50:51.575Z,19.00
2022-12-11T21:53:18.597Z,17.33
2022-12-11T21:55:45.694Z,17.27
2022-12-11T21:58:12.945Z,21.15
2022-12-11T22:00:40.039Z,20.50
2022-12-11T22:03:07.815Z,19.75
2022-12-11T22:05:35.015Z,19.08
2022-12-11T22:08:02.505Z,18.42
2022-12-11T22:10:29.682Z,20.52
2022-12-11T22:12:56.953Z,18.33
2022-12-11T22:15:24.640Z,17.73
2022-12-11T22:17:52.368Z,15.65
2022-12-11T22:20:19.542Z,16.55
2022-12-11T22:22:47.151Z,15.80
2022-12-11T22:25:17.226Z,16.38
2022-12-11T22:27:45.022Z,16.15
2022-12-11T22:30:13.263Z,17.33
2022-12-11T22:32:41.996Z,16.50
2022-12-11T22:35:11.557Z,16.02
2022-12-11T22:37:40.950Z,16.17
2022-12-11T22:40:09.286Z,16.60
2022-12-11T22:42:39.550Z,13.98
2022-12-11T22:45:08.451Z,13.40
2022-12-11T22:47:36.205Z,10.68
2022-12-11T22:50:04.506Z,10.50
2022-12-11T22:52:32.134Z,9.88
2022-12-11T22:55:00.673Z,14.85
2022-12-11T22:57:31.059Z,11.30
2022-12-11T23:00:01.250Z,11.13
2022-12-11T23:02:32.057Z,13.20
2022-12-11T23:04:59.332Z,11.15
2022-12-11T23:07:26.681Z,10.15
2022-12-11T23:09:53.693Z,8.45
2022-12-11T23:12:20.867Z,9.88
2022-12-11T23:14:49.338Z,9.38
2022-12-11T23:17:16.380Z,10.07
2022-12-11T23:19:43.875Z,7.20
2022-12-11T23:22:10.948Z,7.13
2022-12-11T23:24:38.765Z,8.40
2022-12-11T23:27:05.937Z,6.20
2022-12-11T23:29:32.959Z,13.68
2022-12-11T23:32:00.001Z,5.93
2022-12-11T23:34:27.120Z,5.95
2022-12-11T23:36:54.142Z,5.95
2022-12-11T23:39:21.124Z,4.57
2022-12-11T23:41:48.069Z,5.25
2022-12-11T23:44:16.057Z,5.35
2022-12-11T23:46:44.899Z,4.80
2022-12-11T23:49:12.150Z,6.55
2022-12-11T23:51:43.225Z,5.95
2022-12-11T23:54:10.364Z,4.57
2022-12-11T23:56:37.293Z,6.47
2022-12-11T23:59:04.179Z,7.80
